sensor_id;sensor_type;location;lat;lon;timestamp;pressure;altitude;pressure_sealevel;temperature;humidity
35758;BME280;21879;50.110;18.900;2022-09-03T00:06:15;98891.91;;;14.43;50.34
35758;BME280;21879;50.110;18.900;2022-09-03T00:16:51;98887.14;;;14.29;50.23
35758;BME280;21879;50.110;18.900;2022-09-03T00:27:22;98883.55;;;14.25;50.39
35758;BME280;21879;50.110;18.900;2022-09-03T00:37:54;98880.65;;;14.22;50.27
35758;BME280;21879;50.110;18.900;2022-09-03T00:48:26;98883.36;;;14.18;50.59
35758;BME280;21879;50.110;18.900;2022-09-03T00:59:06;98872.27;;;14.13;51.01
35758;BME280;21879;50.110;18.900;2022-09-03T01:09:46;98874.77;;;13.95;50.81
35758;BME280;21879;50.110;18.900;2022-09-03T01:20:36;98881.91;;;13.78;51.21
35758;BME280;21879;50.110;18.900;2022-09-03T01:31:17;98884.27;;;13.73;51.43
35758;BME280;21879;50.110;18.900;2022-09-03T01:41:59;98887.88;;;13.49;51.60
35758;BME280;21879;50.110;18.900;2022-09-03T01:52:53;98888.55;;;13.41;52.03
35758;BME280;21879;50.110;18.900;2022-09-03T02:03:24;98889.54;;;13.23;52.16
35758;BME280;21879;50.110;18.900;2022-09-03T02:14:07;98896.58;;;13.19;52.63
35758;BME280;21879;50.110;18.900;2022-09-03T02:24:36;98893.73;;;13.23;52.81
35758;BME280;21879;50.110;18.900;2022-09-03T02:35:06;98894.77;;;13.01;53.20
35758;BME280;21879;50.110;18.900;2022-09-03T02:45:36;98893.03;;;12.91;53.32
35758;BME280;21879;50.110;18.900;2022-09-03T02:56:10;98896.94;;;12.86;53.54
35758;BME280;21879;50.110;18.900;2022-09-03T03:06:39;98903.90;;;12.86;53.88
35758;BME280;21879;50.110;18.900;2022-09-03T03:17:13;98902.86;;;12.86;53.87
35758;BME280;21879;50.110;18.900;2022-09-03T03:27:42;98901.75;;;12.79;54.08
35758;BME280;21879;50.110;18.900;2022-09-03T03:38:11;98902.29;;;12.55;54.09
35758;BME280;21879;50.110;18.900;2022-09-03T03:48:41;98897.01;;;12.46;54.54
35758;BME280;21879;50.110;18.900;2022-09-03T03:59:10;98889.50;;;12.47;54.84
35758;BME280;21879;50.110;18.900;2022-09-03T04:09:40;98895.70;;;12.52;54.96
35758;BME280;21879;50.110;18.900;2022-09-03T04:20:10;98905.83;;;12.63;54.95
35758;BME280;21879;50.110;18.900;2022-09-03T04:30:39;98902.00;;;12.51;54.92
35758;BME280;21879;50.110;18.900;2022-09-03T04:41:13;98907.45;;;12.34;55.52
35758;BME280;21879;50.110;18.900;2022-09-03T04:51:42;98922.67;;;12.44;55.56
35758;BME280;21879;50.110;18.900;2022-09-03T05:02:11;98935.60;;;12.43;55.18
35758;BME280;21879;50.110;18.900;2022-09-03T05:12:42;98929.29;;;12.44;56.00
35758;BME280;21879;50.110;18.900;2022-09-03T05:23:11;98924.95;;;12.56;56.72
35758;BME280;21879;50.110;18.900;2022-09-03T05:33:42;98922.96;;;13.07;58.21
35758;BME280;21879;50.110;18.900;2022-09-03T05:44:11;98920.85;;;13.97;58.21
35758;BME280;21879;50.110;18.900;2022-09-03T05:54:41;98922.54;;;14.83;57.43
35758;BME280;21879;50.110;18.900;2022-09-03T06:05:10;98915.71;;;15.55;56.10
35758;BME280;21879;50.110;18.900;2022-09-03T06:15:39;98917.13;;;16.31;55.79
35758;BME280;21879;50.110;18.900;2022-09-03T06:26:09;98908.15;;;16.90;54.69
35758;BME280;21879;50.110;18.900;2022-09-03T06:36:39;98903.33;;;17.35;54.19
35758;BME280;21879;50.110;18.900;2022-09-03T06:47:08;98908.00;;;17.73;53.61
35758;BME280;21879;50.110;18.900;2022-09-03T06:57:38;98921.73;;;17.99;53.24
35758;BME280;21879;50.110;18.900;2022-09-03T07:08:07;98930.69;;;18.46;53.70
35758;BME280;21879;50.110;18.900;2022-09-03T07:18:37;98929.13;;;18.74;52.85
35758;BME280;21879;50.110;18.900;2022-09-03T07:29:07;98914.73;;;18.87;52.75
35758;BME280;21879;50.110;18.900;2022-09-03T07:39:36;98921.95;;;18.95;52.70
35758;BME280;21879;50.110;18.900;2022-09-03T07:50:06;98931.42;;;18.79;52.44
35758;BME280;21879;50.110;18.900;2022-09-03T08:00:40;98934.14;;;18.62;52.13
35758;BME280;21879;50.110;18.900;2022-09-03T08:11:11;98943.48;;;18.34;52.39
35758;BME280;21879;50.110;18.900;2022-09-03T08:21:40;98942.20;;;18.17;52.83
35758;BME280;21879;50.110;18.900;2022-09-03T08:32:09;98945.21;;;17.81;53.02
35758;BME280;21879;50.110;18.900;2022-09-03T08:42:51;98940.02;;;17.52;53.84
35758;BME280;21879;50.110;18.900;2022-09-03T08:53:26;98935.52;;;17.40;54.45
35758;BME280;21879;50.110;18.900;2022-09-03T09:04:07;98941.23;;;17.43;54.65
35758;BME280;21879;50.110;18.900;2022-09-03T09:14:42;98935.27;;;17.26;54.88
35758;BME280;21879;50.110;18.900;2022-09-03T09:25:15;98950.75;;;17.15;55.39
35758;BME280;21879;50.110;18.900;2022-09-03T09:35:46;98945.80;;;17.10;55.77
35758;BME280;21879;50.110;18.900;2022-09-03T09:46:19;98946.11;;;17.06;56.18
35758;BME280;21879;50.110;18.900;2022-09-03T09:56:59;98953.06;;;16.92;56.02
35758;BME280;21879;50.110;18.900;2022-09-03T10:07:30;98947.09;;;16.92;56.36
35758;BME280;21879;50.110;18.900;2022-09-03T10:18:04;98943.89;;;17.04;56.54
35758;BME280;21879;50.110;18.900;2022-09-03T10:28:38;98954.02;;;17.01;56.31
35758;BME280;21879;50.110;18.900;2022-09-03T10:39:22;98945.64;;;16.99;56.69
35758;BME280;21879;50.110;18.900;2022-09-03T10:50:00;98934.85;;;17.07;56.83
35758;BME280;21879;50.110;18.900;2022-09-03T11:00:33;98925.65;;;17.20;57.16
35758;BME280;21879;50.110;18.900;2022-09-03T11:11:11;98920.28;;;17.23;56.92
35758;BME280;21879;50.110;18.900;2022-09-03T11:21:42;98909.06;;;17.22;56.74
35758;BME280;21879;50.110;18.900;2022-09-03T11:32:17;98907.98;;;17.33;56.79
35758;BME280;21879;50.110;18.900;2022-09-03T11:42:48;98905.52;;;17.33;56.61
35758;BME280;21879;50.110;18.900;2022-09-03T11:53:25;98894.59;;;17.44;56.86
35758;BME280;21879;50.110;18.900;2022-09-03T12:03:59;98891.39;;;17.50;56.69
35758;BME280;21879;50.110;18.900;2022-09-03T12:14:34;98892.06;;;17.51;56.55
35758;BME280;21879;50.110;18.900;2022-09-03T12:25:09;98897.06;;;17.49;56.69
35758;BME280;21879;50.110;18.900;2022-09-03T12:35:40;98883.08;;;17.57;57.22
35758;BME280;21879;50.110;18.900;2022-09-03T12:46:27;98872.56;;;17.71;56.85
35758;BME280;21879;50.110;18.900;2022-09-03T12:57:00;98869.39;;;17.71;56.63
35758;BME280;21879;50.110;18.900;2022-09-03T13:07:32;98869.56;;;17.72;57.00
35758;BME280;21879;50.110;18.900;2022-09-03T13:18:25;98854.15;;;17.90;57.11
35758;BME280;21879;50.110;18.900;2022-09-03T13:39:51;98846.41;;;18.31;56.52
35758;BME280;21879;50.110;18.900;2022-09-03T13:50:22;98834.08;;;18.59;56.35
35758;BME280;21879;50.110;18.900;2022-09-03T14:01:03;98841.37;;;18.70;55.35
35758;BME280;21879;50.110;18.900;2022-09-03T14:11:45;98835.91;;;18.79;55.67
35758;BME280;21879;50.110;18.900;2022-09-03T14:22:20;98834.33;;;18.88;55.49
35758;BME280;21879;50.110;18.900;2022-09-03T14:32:53;98829.68;;;18.94;55.11
35758;BME280;21879;50.110;18.900;2022-09-03T14:43:40;98822.78;;;18.90;54.60
35758;BME280;21879;50.110;18.900;2022-09-03T14:54:50;98820.56;;;18.89;54.60
35758;BME280;21879;50.110;18.900;2022-09-03T15:05:40;98812.59;;;18.86;54.53
35758;BME280;21879;50.110;18.900;2022-09-03T15:16:27;98808.02;;;18.89;54.79
35758;BME280;21879;50.110;18.900;2022-09-03T15:27:09;98807.29;;;18.98;54.66
35758;BME280;21879;50.110;18.900;2022-09-03T15:37:46;98802.32;;;18.95;54.65
35758;BME280;21879;50.110;18.900;2022-09-03T15:48:22;98803.65;;;18.93;54.69
35758;BME280;21879;50.110;18.900;2022-09-03T15:59:02;98808.90;;;18.85;54.74
35758;BME280;21879;50.110;18.900;2022-09-03T16:09:47;98819.20;;;18.83;54.99
35758;BME280;21879;50.110;18.900;2022-09-03T16:20:45;98828.98;;;18.72;55.06
35758;BME280;21879;50.110;18.900;2022-09-03T16:31:25;98836.77;;;18.58;54.84
35758;BME280;21879;50.110;18.900;2022-09-03T16:42:03;98838.52;;;18.44;54.73
35758;BME280;21879;50.110;18.900;2022-09-03T16:52:57;98839.14;;;18.37;55.01
35758;BME280;21879;50.110;18.900;2022-09-03T17:14:50;98838.52;;;18.03;55.67
35758;BME280;21879;50.110;18.900;2022-09-03T17:25:31;98838.73;;;17.83;56.07
35758;BME280;21879;50.110;18.900;2022-09-03T17:36:11;98846.02;;;17.71;56.33
35758;BME280;21879;50.110;18.900;2022-09-03T17:46:40;98852.40;;;17.64;56.59
35758;BME280;21879;50.110;18.900;2022-09-03T17:57:18;98859.42;;;17.59;56.78
35758;BME280;21879;50.110;18.900;2022-09-03T18:07:56;98871.45;;;17.53;56.93
35758;BME280;21879;50.110;18.900;2022-09-03T18:18:30;98879.64;;;17.44;57.08
35758;BME280;21879;50.110;18.900;2022-09-03T18:29:02;98883.90;;;17.44;57.14
35758;BME280;21879;50.110;18.900;2022-09-03T18:39:49;98886.61;;;17.30;57.40
35758;BME280;21879;50.110;18.900;2022-09-03T18:50:43;98886.04;;;17.22;57.77
35758;BME280;21879;50.110;18.900;2022-09-03T19:01:34;98885.69;;;17.11;58.04
35758;BME280;21879;50.110;18.900;2022-09-03T19:12:30;98886.16;;;16.97;58.33
35758;BME280;21879;50.110;18.900;2022-09-03T19:23:25;98891.63;;;16.91;58.59
35758;BME280;21879;50.110;18.900;2022-09-03T19:34:22;98898.44;;;16.80;58.99
35758;BME280;21879;50.110;18.900;2022-09-03T19:45:21;98897.16;;;16.70;59.38
35758;BME280;21879;50.110;18.900;2022-09-03T19:56:20;98903.38;;;16.68;59.52
35758;BME280;21879;50.110;18.900;2022-09-03T20:07:10;98913.15;;;16.64;59.51
35758;BME280;21879;50.110;18.900;2022-09-03T20:18:03;98918.30;;;16.45;59.81
35758;BME280;21879;50.110;18.900;2022-09-03T20:28:54;98916.02;;;16.39;60.23
35758;BME280;21879;50.110;18.900;2022-09-03T20:39:34;98911.54;;;16.36;60.32
35758;BME280;21879;50.110;18.900;2022-09-03T20:50:20;98926.72;;;16.33;60.47
35758;BME280;21879;50.110;18.900;2022-09-03T21:00:54;98931.40;;;16.29;60.52
35758;BME280;21879;50.110;18.900;2022-09-03T21:11:34;98934.15;;;16.25;60.66
35758;BME280;21879;50.110;18.900;2022-09-03T21:22:12;98938.30;;;16.21;60.72
35758;BME280;21879;50.110;18.900;2022-09-03T21:32:48;98925.00;;;16.19;60.94
35758;BME280;21879;50.110;18.900;2022-09-03T21:43:22;98924.14;;;16.13;60.91
35758;BME280;21879;50.110;18.900;2022-09-03T21:53:57;98932.00;;;16.02;61.02
35758;BME280;21879;50.110;18.900;2022-09-03T22:04:29;98936.49;;;15.97;61.36
35758;BME280;21879;50.110;18.900;2022-09-03T22:14:59;98941.93;;;15.91;61.38
35758;BME280;21879;50.110;18.900;2022-09-03T22:25:34;98940.71;;;15.91;61.47
35758;BME280;21879;50.110;18.900;2022-09-03T22:36:14;98938.95;;;15.92;61.55
35758;BME280;21879;50.110;18.900;2022-09-03T22:46:48;98934.60;;;15.83;61.44
35758;BME280;21879;50.110;18.900;2022-09-03T22:57:20;98940.20;;;15.63;61.63
35758;BME280;21879;50.110;18.900;2022-09-03T23:07:55;98944.88;;;15.58;62.14
35758;BME280;21879;50.110;18.900;2022-09-03T23:18:26;98943.16;;;15.71;61.89
35758;BME280;21879;50.110;18.900;2022-09-03T23:29:02;98937.31;;;15.74;61.75
35758;BME280;21879;50.110;18.900;2022-09-03T23:39:50;98930.49;;;15.80;61.59
35758;BME280;21879;50.110;18.900;2022-09-03T23:50:30;98934.05;;;15.71;61.39
